Vance, Alabama
Current Conditions -  °F | °C
As of 6:53 PM on Sunday 23 Nov 2014 (Local Time) from KTCL Reporting Station
Scattered Clouds Scattered Clouds  
Wind Chill: 64°   Ceiling: Unl
Heat Index: 64°   Visibility: 10mi
Dew Point: 57°   Wind: 12mph
Humidity: 78%   Direction: 170°S
Pressure: 29.61"   Gusts: NA
Location:  33.17°N, 87.23°W
Report Text: KTCL 240053Z 17010KT 10SM SCT055 18/14 A2961 RMK AO2 SLP025 T01780139
Loading
Personal Weather Stations






























Interactive Weather Map New forecast layout! Learn more

10-Day Weather Forecast

Advertisements
Track Severe Weather on mobile